Aviation Digital Data Service (ADDS)

Output produced by METARs form (1200 UTC 19 January 2019)
found at http://www.aviationweather.gov/metar/data/
 
METAR text: MHTG 191200Z 25004KT 9999 FEW012 SCT024 15/14 Q1019 A3009 NOSIG
Conditions at: MHTG (TEGUCIGALPA/TON , HN) observed 1200 UTC 19 January 2019
Temperature: 15.0°C (59°F)
Dewpoint: 14.0°C (57°F) [RH = 94%]
Pressure (altimeter): 30.09 inches Hg (1019.0 mb)
Winds: from the WSW (250 degrees) at 5 MPH (4 knots; 2.1 m/s)
Visibility: 6 or more miles (10+ km)
Ceiling: at least 12,000 feet AGL
Clouds: few clouds at 1200 feet AGL
scattered clouds at 2400 feet AGL
Weather: no significant weather observed at this time

METAR text: MHTG 191100Z 00000KT 9999 FEW010 SCT026 16/14 Q1019 A3009 NOSIG
Conditions at: MHTG (TEGUCIGALPA/TON , HN) observed 1100 UTC 19 January 2019
Temperature: 16.0°C (61°F)
Dewpoint: 14.0°C (57°F) [RH = 88%]
Pressure (altimeter): 30.09 inches Hg (1019.0 mb)
Winds: calm
Visibility: 6 or more miles (10+ km)
Ceiling: at least 12,000 feet AGL
Clouds: few clouds at 1000 feet AGL
scattered clouds at 2600 feet AGL
Weather: no significant weather observed at this time

METAR text: MHTG 191000Z 36002KT 9999 FEW010 BKN026 17/14 Q1018 A3006 NOSIG
Conditions at: MHTG (TEGUCIGALPA/TON , HN) observed 1000 UTC 19 January 2019
Temperature: 17.0°C (63°F)
Dewpoint: 14.0°C (57°F) [RH = 82%]
Pressure (altimeter): 30.06 inches Hg (1018.0 mb)
Winds: from the N (360 degrees) at 2 MPH (2 knots; 1.0 m/s)
Visibility: 6 or more miles (10+ km)
Ceiling: 2600 feet AGL
Clouds: few clouds at 1000 feet AGL
broken clouds at 2600 feet AGL
Weather: no significant weather observed at this time

METAR text: MHTG 190900Z 36008KT 9999 FEW010 BKN026 17/14 Q1018 A3006 NOSIG
Conditions at: MHTG (TEGUCIGALPA/TON , HN) observed 0900 UTC 19 January 2019
Temperature: 17.0°C (63°F)
Dewpoint: 14.0°C (57°F) [RH = 82%]
Pressure (altimeter): 30.06 inches Hg (1018.0 mb)
Winds: from the N (360 degrees) at 9 MPH (8 knots; 4.1 m/s)
Visibility: 6 or more miles (10+ km)
Ceiling: 2600 feet AGL
Clouds: few clouds at 1000 feet AGL
broken clouds at 2600 feet AGL
Weather: no significant weather observed at this time

METAR text: MHTG 190800Z 00000KT 9999 FEW010 BKN026 17/14 Q1019 A3009 NOSIG
Conditions at: MHTG (TEGUCIGALPA/TON , HN) observed 0800 UTC 19 January 2019
Temperature: 17.0°C (63°F)
Dewpoint: 14.0°C (57°F) [RH = 82%]
Pressure (altimeter): 30.09 inches Hg (1019.0 mb)
Winds: calm
Visibility: 6 or more miles (10+ km)
Ceiling: 2600 feet AGL
Clouds: few clouds at 1000 feet AGL
broken clouds at 2600 feet AGL
Weather: no significant weather observed at this time

METAR text: MHTG 190700Z 00000KT 9999 FEW010 BKN026 17/14 Q1019 A3009 NOSIG
Conditions at: MHTG (TEGUCIGALPA/TON , HN) observed 0700 UTC 19 January 2019
Temperature: 17.0°C (63°F)
Dewpoint: 14.0°C (57°F) [RH = 82%]
Pressure (altimeter): 30.09 inches Hg (1019.0 mb)
Winds: calm
Visibility: 6 or more miles (10+ km)
Ceiling: 2600 feet AGL
Clouds: few clouds at 1000 feet AGL
broken clouds at 2600 feet AGL
Weather: no significant weather observed at this time

METAR text: MHTG 190600Z 22002KT 9999 FEW010 SCT026 16/13 Q1020 A3012 NOSIG
Conditions at: MHTG (TEGUCIGALPA/TON , HN) observed 0600 UTC 19 January 2019
Temperature: 16.0°C (61°F)
Dewpoint: 13.0°C (55°F) [RH = 82%]
Pressure (altimeter): 30.12 inches Hg (1020.0 mb)
Winds: from the SW (220 degrees) at 2 MPH (2 knots; 1.0 m/s)
Visibility: 6 or more miles (10+ km)
Ceiling: at least 12,000 feet AGL
Clouds: few clouds at 1000 feet AGL
scattered clouds at 2600 feet AGL
Weather: no significant weather observed at this time

METAR text: MHTG 190500Z 00000KT 9999 SCT026 17/13 Q1020 A3012 NOSIG
Conditions at: MHTG (TEGUCIGALPA/TON , HN) observed 0500 UTC 19 January 2019
Temperature: 17.0°C (63°F)
Dewpoint: 13.0°C (55°F) [RH = 77%]
Pressure (altimeter): 30.12 inches Hg (1020.0 mb)
Winds: calm
Visibility: 6 or more miles (10+ km)
Ceiling: at least 12,000 feet AGL
Clouds: scattered clouds at 2600 feet AGL
Weather: no significant weather observed at this time

METAR text: MHTG 190400Z 24002KT 9999 SCT028 18/13 Q1020 A3012 NOSIG
Conditions at: MHTG (TEGUCIGALPA/TON , HN) observed 0400 UTC 19 January 2019
Temperature: 18.0°C (64°F)
Dewpoint: 13.0°C (55°F) [RH = 73%]
Pressure (altimeter): 30.12 inches Hg (1020.0 mb)
Winds: from the WSW (240 degrees) at 2 MPH (2 knots; 1.0 m/s)
Visibility: 6 or more miles (10+ km)
Ceiling: at least 12,000 feet AGL
Clouds: scattered clouds at 2800 feet AGL
Weather: no significant weather observed at this time

METAR text: MHTG 190300Z 09008KT 9999 FEW030 20/12 Q1019 A3009 NOSIG
Conditions at: MHTG (TEGUCIGALPA/TON , HN) observed 0300 UTC 19 January 2019
Temperature: 20.0°C (68°F)
Dewpoint: 12.0°C (54°F) [RH = 60%]
Pressure (altimeter): 30.09 inches Hg (1019.0 mb)
Winds: from the E (90 degrees) at 9 MPH (8 knots; 4.1 m/s)
Visibility: 6 or more miles (10+ km)
Ceiling: at least 12,000 feet AGL
Clouds: few clouds at 3000 feet AGL
Weather: no significant weather observed at this time

METAR text: MHTG 190200Z 06002KT 9999 FEW030 20/12 Q1019 A3009 NOSIG
Conditions at: MHTG (TEGUCIGALPA/TON , HN) observed 0200 UTC 19 January 2019
Temperature: 20.0°C (68°F)
Dewpoint: 12.0°C (54°F) [RH = 60%]
Pressure (altimeter): 30.09 inches Hg (1019.0 mb)
Winds: from the ENE (60 degrees) at 2 MPH (2 knots; 1.0 m/s)
Visibility: 6 or more miles (10+ km)
Ceiling: at least 12,000 feet AGL
Clouds: few clouds at 3000 feet AGL
Weather: no significant weather observed at this time

METAR text: MHTG 190100Z 00000KT 9999 SCT030 21/14 Q1018 A3006 NOSIG
Conditions at: MHTG (TEGUCIGALPA/TON , HN) observed 0100 UTC 19 January 2019
Temperature: 21.0°C (70°F)
Dewpoint: 14.0°C (57°F) [RH = 64%]
Pressure (altimeter): 30.06 inches Hg (1018.0 mb)
Winds: calm
Visibility: 6 or more miles (10+ km)
Ceiling: at least 12,000 feet AGL
Clouds: scattered clouds at 3000 feet AGL
Weather: no significant weather observed at this time

METAR text: MHTG 190000Z 06006KT 9999 SCT032 22/14 Q1018 A3006 NOSIG
Conditions at: MHTG (TEGUCIGALPA/TON , HN) observed 0000 UTC 19 January 2019
Temperature: 22.0°C (72°F)
Dewpoint: 14.0°C (57°F) [RH = 60%]
Pressure (altimeter): 30.06 inches Hg (1018.0 mb)
Winds: from the ENE (60 degrees) at 7 MPH (6 knots; 3.1 m/s)
Visibility: 6 or more miles (10+ km)
Ceiling: at least 12,000 feet AGL
Clouds: scattered clouds at 3200 feet AGL
Weather: no significant weather observed at this time

METAR text: MHTG 182300Z 07010KT 9999 SCT032 24/13 Q1017 A3003 NOSIG
Conditions at: MHTG (TEGUCIGALPA/TON , HN) observed 2300 UTC 18 January 2019
Temperature: 24.0°C (75°F)
Dewpoint: 13.0°C (55°F) [RH = 50%]
Pressure (altimeter): 30.03 inches Hg (1017.0 mb)
Winds: from the ENE (70 degrees) at 12 MPH (10 knots; 5.1 m/s)
Visibility: 6 or more miles (10+ km)
Ceiling: at least 12,000 feet AGL
Clouds: scattered clouds at 3200 feet AGL
Weather: no significant weather observed at this time

METAR text: MHTG 182200Z 03008KT 9999 SCT032 25/12 Q1017 A3003 NOSIG
Conditions at: MHTG (TEGUCIGALPA/TON , HN) observed 2200 UTC 18 January 2019
Temperature: 25.0°C (77°F)
Dewpoint: 12.0°C (54°F) [RH = 44%]
Pressure (altimeter): 30.03 inches Hg (1017.0 mb)
Winds: from the NNE (30 degrees) at 9 MPH (8 knots; 4.1 m/s)
Visibility: 6 or more miles (10+ km)
Ceiling: at least 12,000 feet AGL
Clouds: scattered clouds at 3200 feet AGL
Weather: no significant weather observed at this time

METAR text: MHTG 182100Z 06010KT 9999 BKN032 25/12 Q1017 A3003 NOSIG
Conditions at: MHTG (TEGUCIGALPA/TON , HN) observed 2100 UTC 18 January 2019
Temperature: 25.0°C (77°F)
Dewpoint: 12.0°C (54°F) [RH = 44%]
Pressure (altimeter): 30.03 inches Hg (1017.0 mb)
Winds: from the ENE (60 degrees) at 12 MPH (10 knots; 5.1 m/s)
Visibility: 6 or more miles (10+ km)
Ceiling: 3200 feet AGL
Clouds: broken clouds at 3200 feet AGL
Weather: no significant weather observed at this time

METAR text: MHTG 182000Z 03012KT 9999 SCT032 25/12 Q1018 A3006 NOSIG
Conditions at: MHTG (TEGUCIGALPA/TON , HN) observed 2000 UTC 18 January 2019
Temperature: 25.0°C (77°F)
Dewpoint: 12.0°C (54°F) [RH = 44%]
Pressure (altimeter): 30.06 inches Hg (1018.0 mb)
Winds: from the NNE (30 degrees) at 14 MPH (12 knots; 6.2 m/s)
Visibility: 6 or more miles (10+ km)
Ceiling: at least 12,000 feet AGL
Clouds: scattered clouds at 3200 feet AGL
Weather: no significant weather observed at this time

METAR text: MHTG 181900Z 03006KT 9999 SCT032 24/11 Q1019 A3009 NOSIG
Conditions at: MHTG (TEGUCIGALPA/TON , HN) observed 1900 UTC 18 January 2019
Temperature: 24.0°C (75°F)
Dewpoint: 11.0°C (52°F) [RH = 44%]
Pressure (altimeter): 30.09 inches Hg (1019.0 mb)
Winds: from the NNE (30 degrees) at 7 MPH (6 knots; 3.1 m/s)
Visibility: 6 or more miles (10+ km)
Ceiling: at least 12,000 feet AGL
Clouds: scattered clouds at 3200 feet AGL
Weather: no significant weather observed at this time

METAR text: MHTG 181800Z 36010KT 9999 BKN032 23/12 Q1020 A3012 NOSIG
Conditions at: MHTG (TEGUCIGALPA/TON , HN) observed 1800 UTC 18 January 2019
Temperature: 23.0°C (73°F)
Dewpoint: 12.0°C (54°F) [RH = 50%]
Pressure (altimeter): 30.12 inches Hg (1020.0 mb)
Winds: from the N (360 degrees) at 12 MPH (10 knots; 5.1 m/s)
Visibility: 6 or more miles (10+ km)
Ceiling: 3200 feet AGL
Clouds: broken clouds at 3200 feet AGL
Weather: no significant weather observed at this time

METAR text: MHTG 181700Z 36010KT 9999 BKN030 23/14 Q1022 A3018 NOSIG
Conditions at: MHTG (TEGUCIGALPA/TON , HN) observed 1700 UTC 18 January 2019
Temperature: 23.0°C (73°F)
Dewpoint: 14.0°C (57°F) [RH = 57%]
Pressure (altimeter): 30.18 inches Hg (1022.0 mb)
Winds: from the N (360 degrees) at 12 MPH (10 knots; 5.1 m/s)
Visibility: 6 or more miles (10+ km)
Ceiling: 3000 feet AGL
Clouds: broken clouds at 3000 feet AGL
Weather: no significant weather observed at this time

METAR text: MHTG 181600Z 36010KT 9999 FEW014 BKN028 20/14 Q1022 A3018 NOSIG
Conditions at: MHTG (TEGUCIGALPA/TON , HN) observed 1600 UTC 18 January 2019
Temperature: 20.0°C (68°F)
Dewpoint: 14.0°C (57°F) [RH = 68%]
Pressure (altimeter): 30.18 inches Hg (1022.0 mb)
Winds: from the N (360 degrees) at 12 MPH (10 knots; 5.1 m/s)
Visibility: 6 or more miles (10+ km)
Ceiling: 2800 feet AGL
Clouds: few clouds at 1400 feet AGL
broken clouds at 2800 feet AGL
Weather: no significant weather observed at this time

METAR text: MHTG 181500Z 36010KT 9999 FEW010 SCT028 20/14 Q1022 A3018 NOSIG
Conditions at: MHTG (TEGUCIGALPA/TON , HN) observed 1500 UTC 18 January 2019
Temperature: 20.0°C (68°F)
Dewpoint: 14.0°C (57°F) [RH = 68%]
Pressure (altimeter): 30.18 inches Hg (1022.0 mb)
Winds: from the N (360 degrees) at 12 MPH (10 knots; 5.1 m/s)
Visibility: 6 or more miles (10+ km)
Ceiling: at least 12,000 feet AGL
Clouds: few clouds at 1000 feet AGL
scattered clouds at 2800 feet AGL
Weather: no significant weather observed at this time

METAR text: MHTG 181432Z 36012KT 9999 FEW010 SCT028 20/15 Q1022 A3018 NOSIG
Conditions at: MHTG (TEGUCIGALPA/TON , HN) observed 1432 UTC 18 January 2019
Temperature: 20.0°C (68°F)
Dewpoint: 15.0°C (59°F) [RH = 73%]
Pressure (altimeter): 30.18 inches Hg (1022.0 mb)
Winds: from the N (360 degrees) at 14 MPH (12 knots; 6.2 m/s)
Visibility: 6 or more miles (10+ km)
Ceiling: at least 12,000 feet AGL
Clouds: few clouds at 1000 feet AGL
scattered clouds at 2800 feet AGL
Weather: no significant weather observed at this time

METAR text: MHTG 181430Z 36010KT 9999 FEW010 SCT028 20/15 Q1022 A3018 HZ
Conditions at: MHTG (TEGUCIGALPA/TON , HN) observed 1430 UTC 18 January 2019
Temperature: 20.0°C (68°F)
Dewpoint: 15.0°C (59°F) [RH = 73%]
Pressure (altimeter): 30.18 inches Hg (1022.0 mb)
Winds: from the N (360 degrees) at 12 MPH (10 knots; 5.1 m/s)
Visibility: 6 or more miles (10+ km)
Ceiling: at least 12,000 feet AGL
Clouds: few clouds at 1000 feet AGL
scattered clouds at 2800 feet AGL
Weather: HZ  (haze)

METAR text: MHTG 181400Z 04011KT 9999 FEW010 SCT026 18/15 Q1022 A3018 NOSIG
Conditions at: MHTG (TEGUCIGALPA/TON , HN) observed 1400 UTC 18 January 2019
Temperature: 18.0°C (64°F)
Dewpoint: 15.0°C (59°F) [RH = 83%]
Pressure (altimeter): 30.18 inches Hg (1022.0 mb)
Winds: from the NE (40 degrees) at 13 MPH (11 knots; 5.7 m/s)
Visibility: 6 or more miles (10+ km)
Ceiling: at least 12,000 feet AGL
Clouds: few clouds at 1000 feet AGL
scattered clouds at 2600 feet AGL
Weather: no significant weather observed at this time

METAR text: MHTG 181330Z 03010KT 9999 FEW008 BKN024 17/15 Q1021 A3015 HZ
Conditions at: MHTG (TEGUCIGALPA/TON , HN) observed 1330 UTC 18 January 2019
Temperature: 17.0°C (63°F)
Dewpoint: 15.0°C (59°F) [RH = 88%]
Pressure (altimeter): 30.15 inches Hg (1021.0 mb)
Winds: from the NNE (30 degrees) at 12 MPH (10 knots; 5.1 m/s)
Visibility: 6 or more miles (10+ km)
Ceiling: 2400 feet AGL
Clouds: few clouds at 800 feet AGL
broken clouds at 2400 feet AGL
Weather: HZ  (haze)

METAR text: MHTG 181300Z 01006KT 8000 FEW008 BKN024 17/15 Q1021 A3015 NOSIG
Conditions at: MHTG (TEGUCIGALPA/TON , HN) observed 1300 UTC 18 January 2019
Temperature: 17.0°C (63°F)
Dewpoint: 15.0°C (59°F) [RH = 88%]
Pressure (altimeter): 30.15 inches Hg (1021.0 mb)
Winds: from the N (10 degrees) at 7 MPH (6 knots; 3.1 m/s)
Visibility: 5 miles ( 8 km)
Ceiling: 2400 feet AGL
Clouds: few clouds at 800 feet AGL
broken clouds at 2400 feet AGL
Weather: no significant weather observed at this time

METAR text: MHTG 181200Z 01006KT 8000 4000SW FEW008 BKN024 17/15 Q1020 A3012 NOSIG
Conditions at: MHTG (TEGUCIGALPA/TON , HN) observed 1200 UTC 18 January 2019
Temperature: 17.0°C (63°F)
Dewpoint: 15.0°C (59°F) [RH = 88%]
Pressure (altimeter): 30.12 inches Hg (1020.0 mb)
Winds: from the N (10 degrees) at 7 MPH (6 knots; 3.1 m/s)
Visibility: 5 miles ( 8 km)
Ceiling: 2400 feet AGL
Clouds: few clouds at 800 feet AGL
broken clouds at 2400 feet AGL
Weather: no significant weather observed at this time

METAR text: MHTG 181100Z 01010KT 8000 4000SW FEW008 BKN024 17/15 Q1020 A3012 NOSIG
Conditions at: MHTG (TEGUCIGALPA/TON , HN) observed 1100 UTC 18 January 2019
Temperature: 17.0°C (63°F)
Dewpoint: 15.0°C (59°F) [RH = 88%]
Pressure (altimeter): 30.12 inches Hg (1020.0 mb)
Winds: from the N (10 degrees) at 12 MPH (10 knots; 5.1 m/s)
Visibility: 5 miles ( 8 km)
Ceiling: 2400 feet AGL
Clouds: few clouds at 800 feet AGL
broken clouds at 2400 feet AGL
Weather: no significant weather observed at this time

METAR text: MHTG 181000Z 03010KT 8000 FEW008 BKN024 17/15 Q1020 A3012 NOSIG
Conditions at: MHTG (TEGUCIGALPA/TON , HN) observed 1000 UTC 18 January 2019
Temperature: 17.0°C (63°F)
Dewpoint: 15.0°C (59°F) [RH = 88%]
Pressure (altimeter): 30.12 inches Hg (1020.0 mb)
Winds: from the NNE (30 degrees) at 12 MPH (10 knots; 5.1 m/s)
Visibility: 5 miles ( 8 km)
Ceiling: 2400 feet AGL
Clouds: few clouds at 800 feet AGL
broken clouds at 2400 feet AGL
Weather: no significant weather observed at this time

METAR text: MHTG 180900Z 36010KT 8000 FEW008 BKN024 18/15 Q1020 A3012 NOSIG
Conditions at: MHTG (TEGUCIGALPA/TON , HN) observed 0900 UTC 18 January 2019
Temperature: 18.0°C (64°F)
Dewpoint: 15.0°C (59°F) [RH = 83%]
Pressure (altimeter): 30.12 inches Hg (1020.0 mb)
Winds: from the N (360 degrees) at 12 MPH (10 knots; 5.1 m/s)
Visibility: 5 miles ( 8 km)
Ceiling: 2400 feet AGL
Clouds: few clouds at 800 feet AGL
broken clouds at 2400 feet AGL
Weather: no significant weather observed at this time

METAR text: MHTG 180800Z 35010KT 8000 FEW010 BKN026 18/15 Q1021 A3015 NOSIG
Conditions at: MHTG (TEGUCIGALPA/TON , HN) observed 0800 UTC 18 January 2019
Temperature: 18.0°C (64°F)
Dewpoint: 15.0°C (59°F) [RH = 83%]
Pressure (altimeter): 30.15 inches Hg (1021.0 mb)
Winds: from the N (350 degrees) at 12 MPH (10 knots; 5.1 m/s)
Visibility: 5 miles ( 8 km)
Ceiling: 2600 feet AGL
Clouds: few clouds at 1000 feet AGL
broken clouds at 2600 feet AGL
Weather: no significant weather observed at this time

METAR text: MHTG 180700Z 02010KT 8000 FEW010 BKN026 18/15 Q1021 A3015 NOSIG
Conditions at: MHTG (TEGUCIGALPA/TON , HN) observed 0700 UTC 18 January 2019
Temperature: 18.0°C (64°F)
Dewpoint: 15.0°C (59°F) [RH = 83%]
Pressure (altimeter): 30.15 inches Hg (1021.0 mb)
Winds: from the NNE (20 degrees) at 12 MPH (10 knots; 5.1 m/s)
Visibility: 5 miles ( 8 km)
Ceiling: 2600 feet AGL
Clouds: few clouds at 1000 feet AGL
broken clouds at 2600 feet AGL
Weather: no significant weather observed at this time

METAR text: MHTG 180600Z 36010KT 8000 FEW010 BKN026 18/16 Q1022 A3018 NOSIG
Conditions at: MHTG (TEGUCIGALPA/TON , HN) observed 0600 UTC 18 January 2019
Temperature: 18.0°C (64°F)
Dewpoint: 16.0°C (61°F) [RH = 88%]
Pressure (altimeter): 30.18 inches Hg (1022.0 mb)
Winds: from the N (360 degrees) at 12 MPH (10 knots; 5.1 m/s)
Visibility: 5 miles ( 8 km)
Ceiling: 2600 feet AGL
Clouds: few clouds at 1000 feet AGL
broken clouds at 2600 feet AGL
Weather: no significant weather observed at this time

METAR text: MHTG 180500Z 04010KT 8000 VCSH FEW010 BKN026 18/16 Q1023 A3021 NOSIG
Conditions at: MHTG (TEGUCIGALPA/TON , HN) observed 0500 UTC 18 January 2019
Temperature: 18.0°C (64°F)
Dewpoint: 16.0°C (61°F) [RH = 88%]
Pressure (altimeter): 30.21 inches Hg (1023.0 mb)
Winds: from the NE (40 degrees) at 12 MPH (10 knots; 5.1 m/s)
Visibility: 5 miles ( 8 km)
Ceiling: 2600 feet AGL
Clouds: few clouds at 1000 feet AGL
broken clouds at 2600 feet AGL
Weather: VCSH  (showers in vicinity)

METAR text: MHTG 180400Z 36010KT 8000 VCSH FEW010 BKN026 18/16 Q1023 A3021 RERA NOSIG
Conditions at: MHTG (TEGUCIGALPA/TON , HN) observed 0400 UTC 18 January 2019
Temperature: 18.0°C (64°F)
Dewpoint: 16.0°C (61°F) [RH = 88%]
Pressure (altimeter): 30.21 inches Hg (1023.0 mb)
Winds: from the N (360 degrees) at 12 MPH (10 knots; 5.1 m/s)
Visibility: 5 miles ( 8 km)
Ceiling: 2600 feet AGL
Clouds: few clouds at 1000 feet AGL
broken clouds at 2600 feet AGL
Weather: VCSH  (showers in vicinity)

METAR text: MHTG 180300Z 04010KT 8000 4000SW -RA FEW010 BKN026 18/16 Q1022 A3018 NOSIG
Conditions at: MHTG (TEGUCIGALPA/TON , HN) observed 0300 UTC 18 January 2019
Temperature: 18.0°C (64°F)
Dewpoint: 16.0°C (61°F) [RH = 88%]
Pressure (altimeter): 30.18 inches Hg (1022.0 mb)
Winds: from the NE (40 degrees) at 12 MPH (10 knots; 5.1 m/s)
Visibility: 5 miles ( 8 km)
Ceiling: 2600 feet AGL
Clouds: few clouds at 1000 feet AGL
broken clouds at 2600 feet AGL
Weather: -RA  (light rain)

METAR text: MHTG 180220Z 36010KR 8000 4000SW -RA FEW010 BKN026 18/16 Q1022 A3018 NOSIG
Conditions at: MHTG (TEGUCIGALPA/TON , HN) observed 0220 UTC 18 January 2019
Temperature: 18.0°C (64°F)
Dewpoint: 16.0°C (61°F) [RH = 88%]
Pressure (altimeter): 30.18 inches Hg (1022.0 mb)
Winds: missing
Visibility: 5 miles ( 8 km)
Ceiling: 2600 feet AGL
Clouds: few clouds at 1000 feet AGL
broken clouds at 2600 feet AGL
Weather: -RA  (light rain)

METAR text: MHTG 180200Z 36014KT 9999 BKN028 SCT080 19/16 Q1021 A3015 NOSIG
Conditions at: MHTG (TEGUCIGALPA/TON , HN) observed 0200 UTC 18 January 2019
Temperature: 19.0°C (66°F)
Dewpoint: 16.0°C (61°F) [RH = 83%]
Pressure (altimeter): 30.15 inches Hg (1021.0 mb)
Winds: from the N (360 degrees) at 16 MPH (14 knots; 7.2 m/s)
Visibility: 6 or more miles (10+ km)
Ceiling: 2800 feet AGL
Clouds: broken clouds at 2800 feet AGL
scattered clouds at 8000 feet AGL
Weather: no significant weather observed at this time

METAR text: MHTG 180100Z 36012KT 9999 BKN030 19/16 Q1021 A3015 NOSIG
Conditions at: MHTG (TEGUCIGALPA/TON , HN) observed 0100 UTC 18 January 2019
Temperature: 19.0°C (66°F)
Dewpoint: 16.0°C (61°F) [RH = 83%]
Pressure (altimeter): 30.15 inches Hg (1021.0 mb)
Winds: from the N (360 degrees) at 14 MPH (12 knots; 6.2 m/s)
Visibility: 6 or more miles (10+ km)
Ceiling: 3000 feet AGL
Clouds: broken clouds at 3000 feet AGL
Weather: no significant weather observed at this time

Forecast for: MHTG (TEGUCIGALPA/TON , HN)
Text: TAF MHTG 191045Z 1912/2012 36006KT 9999 FEW010 BKN026 TX26/1920Z TN17/2012Z
Forecast period: 1200 to 1400 UTC 19 January 2019
Forecast type: FROM: standard forecast or significant change
Winds: from the N (360 degrees) at 7 MPH (6 knots; 3.1 m/s)
Visibility: 6 or more miles 10+ km)
Ceiling: 2600 feet AGL
Clouds: few clouds at 1000 feet AGL
broken clouds at 2600 feet AGL
Weather: no significant weather forecast for this period
Text: BECMG 1914/1916 08005KT SCT030
Forecast period: 1400 UTC 19 January 2019 to 0100 UTC 20 January 2019
Forecast type: BECOMING: Conditions expected to become as follows by 1600 UTC 19 January 2019
Winds: from the E (80 degrees) at 6 MPH (5 knots; 2.6 m/s)
Visibility: 6 or more miles 10+ km)
Ceiling: at least 12,000 feet AGL
Clouds: scattered clouds at 3000 feet AGL
Weather: no significant weather forecast for this period
Text: BECMG 2001/2003 36010KT SCT026 SCT080
Forecast period: 0100 to 1200 UTC 20 January 2019
Forecast type: BECOMING: Conditions expected to become as follows by 0300 UTC 20 January 2019
Winds: from the N (360 degrees) at 12 MPH (10 knots; 5.1 m/s)
Visibility: 6 or more miles 10+ km)
Ceiling: at least 12,000 feet AGL
Clouds: scattered clouds at 2600 feet AGL
scattered clouds at 8000 feet AGL
Weather: no significant weather forecast for this period